sensor_id;sensor_type;location;lat;lon;timestamp;pressure;altitude;pressure_sealevel;temperature;humidity
5126;BME280;63008;53.112;8.896;2023-06-14T00:00:57;101717.72;;;16.10;65.23
5126;BME280;63008;53.112;8.896;2023-06-14T00:02:58;101721.41;;;16.02;65.86
5126;BME280;63008;53.112;8.896;2023-06-14T00:05:00;101715.75;;;15.99;66.14
5126;BME280;63008;53.112;8.896;2023-06-14T00:07:01;101722.25;;;16.03;66.15
5126;BME280;63008;53.112;8.896;2023-06-14T00:09:05;101721.75;;;16.13;65.49
5126;BME280;63008;53.112;8.896;2023-06-14T00:11:06;101725.00;;;16.03;65.77
5126;BME280;63008;53.112;8.896;2023-06-14T00:13:08;101722.81;;;15.96;66.22
5126;BME280;63008;53.112;8.896;2023-06-14T00:15:09;101725.09;;;15.82;66.68
5126;BME280;63008;53.112;8.896;2023-06-14T00:17:10;101733.63;;;15.65;67.32
5126;BME280;63008;53.112;8.896;2023-06-14T00:19:11;101722.31;;;15.58;67.66
5126;BME280;63008;53.112;8.896;2023-06-14T00:21:12;101724.59;;;15.56;68.12
5126;BME280;63008;53.112;8.896;2023-06-14T00:23:13;101726.38;;;15.73;67.31
5126;BME280;63008;53.112;8.896;2023-06-14T00:25:14;101723.03;;;15.79;67.36
5126;BME280;63008;53.112;8.896;2023-06-14T00:27:15;101728.91;;;15.78;67.13
5126;BME280;63008;53.112;8.896;2023-06-14T00:29:16;101731.34;;;15.79;67.22
5126;BME280;63008;53.112;8.896;2023-06-14T00:31:17;101726.59;;;15.68;67.62
5126;BME280;63008;53.112;8.896;2023-06-14T00:33:18;101728.09;;;15.65;67.95
5126;BME280;63008;53.112;8.896;2023-06-14T00:35:19;101736.75;;;15.76;67.45
5126;BME280;63008;53.112;8.896;2023-06-14T00:37:20;101740.91;;;15.70;67.78
5126;BME280;63008;53.112;8.896;2023-06-14T00:39:21;101731.88;;;15.61;67.94
5126;BME280;63008;53.112;8.896;2023-06-14T00:41:22;101739.59;;;15.55;68.34
5126;BME280;63008;53.112;8.896;2023-06-14T00:43:23;101737.19;;;15.54;68.49
5126;BME280;63008;53.112;8.896;2023-06-14T00:45:24;101738.66;;;15.51;68.58
5126;BME280;63008;53.112;8.896;2023-06-14T00:47:25;101737.00;;;15.38;69.20
5126;BME280;63008;53.112;8.896;2023-06-14T00:49:29;101731.56;;;15.30;69.28
5126;BME280;63008;53.112;8.896;2023-06-14T00:51:30;101738.50;;;15.36;69.27
5126;BME280;63008;53.112;8.896;2023-06-14T00:53:31;101743.28;;;15.27;69.74
5126;BME280;63008;53.112;8.896;2023-06-14T00:55:34;101747.06;;;15.22;69.98
5126;BME280;63008;53.112;8.896;2023-06-14T00:57:35;101742.09;;;15.16;70.21
5126;BME280;63008;53.112;8.896;2023-06-14T00:59:42;101747.50;;;15.12;70.36
5126;BME280;63008;53.112;8.896;2023-06-14T01:01:43;101742.75;;;15.13;70.43
5126;BME280;63008;53.112;8.896;2023-06-14T01:03:45;101749.25;;;15.17;70.31
5126;BME280;63008;53.112;8.896;2023-06-14T01:05:47;101756.59;;;15.13;70.71
5126;BME280;63008;53.112;8.896;2023-06-14T01:08:30;101756.72;;;15.16;70.56
5126;BME280;63008;53.112;8.896;2023-06-14T01:11:05;101752.22;;;15.12;70.49
5126;BME280;63008;53.112;8.896;2023-06-14T01:13:14;101753.50;;;14.94;71.33
5126;BME280;63008;53.112;8.896;2023-06-14T01:15:16;101755.94;;;14.95;71.43
5126;BME280;63008;53.112;8.896;2023-06-14T01:17:18;101752.16;;;15.00;71.27
5126;BME280;63008;53.112;8.896;2023-06-14T01:19:20;101750.66;;;15.02;71.21
5126;BME280;63008;53.112;8.896;2023-06-14T01:21:24;101758.41;;;15.09;71.03
5126;BME280;63008;53.112;8.896;2023-06-14T01:23:25;101755.03;;;15.03;71.16
5126;BME280;63008;53.112;8.896;2023-06-14T01:25:32;101755.41;;;15.02;71.17
5126;BME280;63008;53.112;8.896;2023-06-14T01:27:34;101760.31;;;14.96;71.48
5126;BME280;63008;53.112;8.896;2023-06-14T01:29:35;101758.72;;;14.95;71.57
5126;BME280;63008;53.112;8.896;2023-06-14T01:31:36;101765.38;;;14.94;71.48
5126;BME280;63008;53.112;8.896;2023-06-14T01:33:42;101764.09;;;14.92;71.62
5126;BME280;63008;53.112;8.896;2023-06-14T01:35:47;101758.97;;;15.02;71.41
5126;BME280;63008;53.112;8.896;2023-06-14T01:37:49;101763.09;;;14.96;71.57
5126;BME280;63008;53.112;8.896;2023-06-14T01:39:50;101764.78;;;15.09;71.17
5126;BME280;63008;53.112;8.896;2023-06-14T01:41:52;101767.72;;;15.04;71.16
5126;BME280;63008;53.112;8.896;2023-06-14T01:43:54;101768.22;;;14.86;72.12
5126;BME280;63008;53.112;8.896;2023-06-14T01:45:57;101772.47;;;14.83;72.19
5126;BME280;63008;53.112;8.896;2023-06-14T01:48:00;101773.81;;;14.77;72.43
5126;BME280;63008;53.112;8.896;2023-06-14T01:50:03;101767.88;;;14.67;72.91
5126;BME280;63008;53.112;8.896;2023-06-14T01:52:04;101773.34;;;14.75;72.74
5126;BME280;63008;53.112;8.896;2023-06-14T01:54:06;101766.25;;;14.66;72.92
5126;BME280;63008;53.112;8.896;2023-06-14T01:56:07;101761.28;;;14.60;73.50
5126;BME280;63008;53.112;8.896;2023-06-14T01:58:10;101761.28;;;14.60;73.39
5126;BME280;63008;53.112;8.896;2023-06-14T02:00:11;101760.66;;;14.54;73.86
5126;BME280;63008;53.112;8.896;2023-06-14T02:02:15;101760.44;;;14.59;73.55
5126;BME280;63008;53.112;8.896;2023-06-14T02:04:16;101769.88;;;14.58;73.77
5126;BME280;63008;53.112;8.896;2023-06-14T02:06:17;101768.09;;;14.62;73.47
5126;BME280;63008;53.112;8.896;2023-06-14T02:08:18;101759.31;;;14.60;73.65
5126;BME280;63008;53.112;8.896;2023-06-14T02:10:20;101771.44;;;14.67;73.26
5126;BME280;63008;53.112;8.896;2023-06-14T02:12:21;101767.22;;;14.70;73.14
5126;BME280;63008;53.112;8.896;2023-06-14T02:14:22;101767.75;;;14.84;72.71
5126;BME280;63008;53.112;8.896;2023-06-14T02:16:23;101767.13;;;14.78;72.92
5126;BME280;63008;53.112;8.896;2023-06-14T02:18:25;101769.63;;;14.92;72.61
5126;BME280;63008;53.112;8.896;2023-06-14T02:20:26;101769.16;;;14.90;72.49
5126;BME280;63008;53.112;8.896;2023-06-14T02:22:27;101766.75;;;14.88;72.25
5126;BME280;63008;53.112;8.896;2023-06-14T02:24:28;101772.94;;;14.65;73.16
5126;BME280;63008;53.112;8.896;2023-06-14T02:26:29;101772.22;;;14.48;73.96
5126;BME280;63008;53.112;8.896;2023-06-14T02:28:30;101771.44;;;14.47;74.23
5126;BME280;63008;53.112;8.896;2023-06-14T02:30:31;101769.25;;;14.32;74.88
5126;BME280;63008;53.112;8.896;2023-06-14T02:32:32;101770.50;;;14.35;74.85
5126;BME280;63008;53.112;8.896;2023-06-14T02:34:36;101773.09;;;14.40;75.07
5126;BME280;63008;53.112;8.896;2023-06-14T02:36:37;101775.75;;;14.57;74.15
5126;BME280;63008;53.112;8.896;2023-06-14T02:38:42;101775.88;;;14.40;74.64
5126;BME280;63008;53.112;8.896;2023-06-14T02:40:43;101776.59;;;14.28;75.32
5126;BME280;63008;53.112;8.896;2023-06-14T02:42:44;101774.84;;;14.15;75.85
5126;BME280;63008;53.112;8.896;2023-06-14T02:44:45;101783.31;;;14.10;76.15
5126;BME280;63008;53.112;8.896;2023-06-14T02:46:47;101787.03;;;14.14;76.21
5126;BME280;63008;53.112;8.896;2023-06-14T02:48:48;101782.75;;;14.25;76.01
5126;BME280;63008;53.112;8.896;2023-06-14T02:50:51;101780.34;;;14.15;76.07
5126;BME280;63008;53.112;8.896;2023-06-14T02:52:52;101784.06;;;14.28;75.70
5126;BME280;63008;53.112;8.896;2023-06-14T02:54:56;101789.47;;;14.16;76.16
5126;BME280;63008;53.112;8.896;2023-06-14T02:56:57;101789.16;;;14.09;76.57
5126;BME280;63008;53.112;8.896;2023-06-14T02:58:58;101793.56;;;14.01;76.78
5126;BME280;63008;53.112;8.896;2023-06-14T03:00:59;101796.09;;;14.15;76.78
5126;BME280;63008;53.112;8.896;2023-06-14T03:03:04;101797.25;;;14.14;76.50
5126;BME280;63008;53.112;8.896;2023-06-14T03:05:05;101798.91;;;14.06;76.70
5126;BME280;63008;53.112;8.896;2023-06-14T03:07:07;101800.19;;;14.17;76.76
5126;BME280;63008;53.112;8.896;2023-06-14T03:09:11;101804.84;;;14.25;76.17
5126;BME280;63008;53.112;8.896;2023-06-14T03:11:12;101807.13;;;14.15;76.46
5126;BME280;63008;53.112;8.896;2023-06-14T03:13:14;101802.63;;;14.10;76.62
5126;BME280;63008;53.112;8.896;2023-06-14T03:15:16;101806.03;;;14.16;76.53
5126;BME280;63008;53.112;8.896;2023-06-14T03:17:18;101807.50;;;14.13;76.63
5126;BME280;63008;53.112;8.896;2023-06-14T03:19:20;101806.22;;;14.02;77.22
5126;BME280;63008;53.112;8.896;2023-06-14T03:21:21;101807.66;;;14.08;77.12
5126;BME280;63008;53.112;8.896;2023-06-14T03:23:26;101803.81;;;14.01;77.17
5126;BME280;63008;53.112;8.896;2023-06-14T03:25:26;101811.97;;;13.89;77.68
5126;BME280;63008;53.112;8.896;2023-06-14T03:27:30;101819.78;;;13.87;78.12
5126;BME280;63008;53.112;8.896;2023-06-14T03:29:31;101817.66;;;13.84;78.34
5126;BME280;63008;53.112;8.896;2023-06-14T03:31:32;101820.28;;;13.80;78.46
5126;BME280;63008;53.112;8.896;2023-06-14T03:33:33;101820.59;;;13.79;78.54
5126;BME280;63008;53.112;8.896;2023-06-14T03:35:34;101824.34;;;13.83;78.61
5126;BME280;63008;53.112;8.896;2023-06-14T03:37:35;101823.84;;;13.72;79.08
5126;BME280;63008;53.112;8.896;2023-06-14T03:39:36;101814.28;;;13.70;79.31
5126;BME280;63008;53.112;8.896;2023-06-14T03:41:37;101828.28;;;13.65;79.52
5126;BME280;63008;53.112;8.896;2023-06-14T03:43:38;101829.53;;;13.76;79.33
5126;BME280;63008;53.112;8.896;2023-06-14T03:45:39;101829.38;;;13.72;79.39
5126;BME280;63008;53.112;8.896;2023-06-14T03:47:40;101827.25;;;13.69;79.59
5126;BME280;63008;53.112;8.896;2023-06-14T03:49:41;101831.50;;;13.67;79.82
5126;BME280;63008;53.112;8.896;2023-06-14T03:51:42;101829.88;;;13.74;79.72
5126;BME280;63008;53.112;8.896;2023-06-14T03:53:43;101835.50;;;13.86;79.33
5126;BME280;63008;53.112;8.896;2023-06-14T03:55:44;101834.69;;;13.86;79.43
5126;BME280;63008;53.112;8.896;2023-06-14T03:57:45;101840.38;;;13.81;79.48
5126;BME280;63008;53.112;8.896;2023-06-14T03:59:46;101838.41;;;13.98;79.24
5126;BME280;63008;53.112;8.896;2023-06-14T04:01:47;101834.69;;;13.94;79.05
5126;BME280;63008;53.112;8.896;2023-06-14T04:03:49;101841.63;;;14.00;79.05
5126;BME280;63008;53.112;8.896;2023-06-14T04:05:50;101838.22;;;13.95;79.20
5126;BME280;63008;53.112;8.896;2023-06-14T04:07:51;101836.78;;;13.97;79.21
5126;BME280;63008;53.112;8.896;2023-06-14T04:09:52;101837.88;;;14.05;79.08
5126;BME280;63008;53.112;8.896;2023-06-14T04:11:53;101836.28;;;14.04;79.05
5126;BME280;63008;53.112;8.896;2023-06-14T04:13:54;101838.56;;;14.02;79.27
5126;BME280;63008;53.112;8.896;2023-06-14T04:15:57;101851.22;;;14.03;79.04
5126;BME280;63008;53.112;8.896;2023-06-14T04:17:58;101849.63;;;13.93;79.50
5126;BME280;63008;53.112;8.896;2023-06-14T04:19:59;101850.41;;;13.94;79.81
5126;BME280;63008;53.112;8.896;2023-06-14T04:22:00;101853.66;;;13.96;79.96
5126;BME280;63008;53.112;8.896;2023-06-14T04:24:03;101846.97;;;14.05;79.42
5126;BME280;63008;53.112;8.896;2023-06-14T04:26:04;101859.16;;;14.04;79.43
5126;BME280;63008;53.112;8.896;2023-06-14T04:28:05;101859.97;;;14.05;79.63
5126;BME280;63008;53.112;8.896;2023-06-14T04:30:06;101857.88;;;14.02;79.71
5126;BME280;63008;53.112;8.896;2023-06-14T04:32:08;101871.97;;;14.09;79.62
5126;BME280;63008;53.112;8.896;2023-06-14T04:34:11;101873.41;;;14.15;79.60
5126;BME280;63008;53.112;8.896;2023-06-14T04:36:16;101862.34;;;14.23;79.45
5126;BME280;63008;53.112;8.896;2023-06-14T04:38:18;101862.50;;;14.27;79.18
5126;BME280;63008;53.112;8.896;2023-06-14T04:40:19;101871.75;;;14.31;78.67
5126;BME280;63008;53.112;8.896;2023-06-14T04:42:20;101869.47;;;14.33;78.35
5126;BME280;63008;53.112;8.896;2023-06-14T04:44:21;101863.81;;;14.29;78.41
5126;BME280;63008;53.112;8.896;2023-06-14T04:46:28;101867.53;;;14.33;78.35
5126;BME280;63008;53.112;8.896;2023-06-14T04:48:29;101862.97;;;14.37;78.56
5126;BME280;63008;53.112;8.896;2023-06-14T04:50:32;101873.66;;;14.47;78.66
5126;BME280;63008;53.112;8.896;2023-06-14T04:52:33;101872.47;;;14.57;77.80
5126;BME280;63008;53.112;8.896;2023-06-14T04:54:36;101861.06;;;14.58;77.94
5126;BME280;63008;53.112;8.896;2023-06-14T04:56:43;101872.38;;;14.73;78.03
5126;BME280;63008;53.112;8.896;2023-06-14T04:58:44;101874.56;;;14.88;76.92
5126;BME280;63008;53.112;8.896;2023-06-14T05:00:47;101879.00;;;15.01;76.28
5126;BME280;63008;53.112;8.896;2023-06-14T05:02:48;101866.84;;;14.94;76.49
5126;BME280;63008;53.112;8.896;2023-06-14T05:04:50;101872.22;;;14.99;76.93
5126;BME280;63008;53.112;8.896;2023-06-14T05:06:51;101873.00;;;14.99;76.36
5126;BME280;63008;53.112;8.896;2023-06-14T05:08:52;101871.94;;;15.12;75.97
5126;BME280;63008;53.112;8.896;2023-06-14T05:10:53;101872.19;;;15.19;76.16
5126;BME280;63008;53.112;8.896;2023-06-14T05:12:54;101874.66;;;15.21;76.46
5126;BME280;63008;53.112;8.896;2023-06-14T05:14:55;101877.84;;;15.31;75.37
5126;BME280;63008;53.112;8.896;2023-06-14T05:16:58;101870.47;;;15.35;75.69
5126;BME280;63008;53.112;8.896;2023-06-14T05:18:59;101880.88;;;15.38;75.81
5126;BME280;63008;53.112;8.896;2023-06-14T05:20:59;101880.25;;;15.53;75.21
5126;BME280;63008;53.112;8.896;2023-06-14T05:23:00;101877.88;;;15.64;75.03
5126;BME280;63008;53.112;8.896;2023-06-14T05:25:02;101878.16;;;15.71;74.16
5126;BME280;63008;53.112;8.896;2023-06-14T05:27:03;101881.53;;;15.76;74.40
5126;BME280;63008;53.112;8.896;2023-06-14T05:29:04;101888.00;;;15.80;74.52
5126;BME280;63008;53.112;8.896;2023-06-14T05:31:05;101885.59;;;15.91;73.49
5126;BME280;63008;53.112;8.896;2023-06-14T05:33:06;101890.22;;;15.99;72.97
5126;BME280;63008;53.112;8.896;2023-06-14T05:35:07;101880.09;;;16.03;72.78
5126;BME280;63008;53.112;8.896;2023-06-14T05:37:08;101882.97;;;16.06;73.06
5126;BME280;63008;53.112;8.896;2023-06-14T05:39:09;101883.47;;;16.20;72.70
5126;BME280;63008;53.112;8.896;2023-06-14T05:41:11;101891.91;;;16.24;72.32
5126;BME280;63008;53.112;8.896;2023-06-14T05:43:12;101904.84;;;16.32;72.57
5126;BME280;63008;53.112;8.896;2023-06-14T05:45:13;101900.38;;;16.39;72.06
5126;BME280;63008;53.112;8.896;2023-06-14T05:47:16;101898.44;;;16.63;70.51
5126;BME280;63008;53.112;8.896;2023-06-14T05:49:17;101901.69;;;16.65;70.31
5126;BME280;63008;53.112;8.896;2023-06-14T05:51:18;101901.00;;;16.80;68.92
5126;BME280;63008;53.112;8.896;2023-06-14T05:53:19;101904.69;;;16.84;68.13
5126;BME280;63008;53.112;8.896;2023-06-14T05:55:20;101907.13;;;16.86;68.09
5126;BME280;63008;53.112;8.896;2023-06-14T05:57:21;101909.78;;;16.94;67.42
5126;BME280;63008;53.112;8.896;2023-06-14T05:59:22;101911.00;;;16.97;67.29
5126;BME280;63008;53.112;8.896;2023-06-14T06:01:23;101914.81;;;17.04;67.03
5126;BME280;63008;53.112;8.896;2023-06-14T06:03:24;101918.75;;;17.03;67.17
5126;BME280;63008;53.112;8.896;2023-06-14T06:05:25;101920.25;;;17.13;67.05
5126;BME280;63008;53.112;8.896;2023-06-14T06:07:26;101914.13;;;17.07;66.98
5126;BME280;63008;53.112;8.896;2023-06-14T06:09:27;101922.22;;;17.12;67.50
5126;BME280;63008;53.112;8.896;2023-06-14T06:11:28;101923.13;;;17.16;66.93
5126;BME280;63008;53.112;8.896;2023-06-14T06:13:29;101919.41;;;17.24;66.60
5126;BME280;63008;53.112;8.896;2023-06-14T06:15:30;101914.34;;;17.26;66.85
5126;BME280;63008;53.112;8.896;2023-06-14T06:17:31;101910.31;;;17.36;66.33
5126;BME280;63008;53.112;8.896;2023-06-14T06:19:32;101910.81;;;17.53;65.84
5126;BME280;63008;53.112;8.896;2023-06-14T06:21:33;101912.19;;;17.59;65.46
5126;BME280;63008;53.112;8.896;2023-06-14T06:23:34;101916.69;;;17.64;66.01
5126;BME280;63008;53.112;8.896;2023-06-14T06:25:35;101921.31;;;17.72;63.72
5126;BME280;63008;53.112;8.896;2023-06-14T06:27:36;101924.75;;;17.69;63.86
5126;BME280;63008;53.112;8.896;2023-06-14T06:29:38;101929.69;;;17.87;62.65
5126;BME280;63008;53.112;8.896;2023-06-14T06:31:39;101927.09;;;17.94;62.07
5126;BME280;63008;53.112;8.896;2023-06-14T06:33:40;101925.47;;;17.93;61.85
5126;BME280;63008;53.112;8.896;2023-06-14T06:35:41;101926.94;;;18.03;62.16
5126;BME280;63008;53.112;8.896;2023-06-14T06:37:46;101926.09;;;18.14;62.14
5126;BME280;63008;53.112;8.896;2023-06-14T06:39:47;101930.22;;;18.20;62.35
5126;BME280;63008;53.112;8.896;2023-06-14T06:41:48;101931.94;;;18.25;61.53
5126;BME280;63008;53.112;8.896;2023-06-14T06:43:49;101928.28;;;18.36;60.74
5126;BME280;63008;53.112;8.896;2023-06-14T06:45:50;101928.13;;;18.45;59.99
5126;BME280;63008;53.112;8.896;2023-06-14T06:47:51;101932.63;;;18.49;60.01
5126;BME280;63008;53.112;8.896;2023-06-14T06:49:52;101937.09;;;18.53;59.30
5126;BME280;63008;53.112;8.896;2023-06-14T06:52:03;101930.34;;;18.54;59.87
5126;BME280;63008;53.112;8.896;2023-06-14T06:54:04;101934.50;;;18.60;59.32
5126;BME280;63008;53.112;8.896;2023-06-14T06:56:06;101941.94;;;18.72;59.66
5126;BME280;63008;53.112;8.896;2023-06-14T06:58:07;101938.53;;;18.78;58.65
5126;BME280;63008;53.112;8.896;2023-06-14T07:00:11;101940.88;;;18.76;57.51
5126;BME280;63008;53.112;8.896;2023-06-14T07:02:13;101945.34;;;18.81;57.65
5126;BME280;63008;53.112;8.896;2023-06-14T07:04:14;101939.59;;;18.89;58.00
5126;BME280;63008;53.112;8.896;2023-06-14T07:06:15;101944.69;;;19.03;58.29
5126;BME280;63008;53.112;8.896;2023-06-14T07:08:22;101946.13;;;19.12;57.33
5126;BME280;63008;53.112;8.896;2023-06-14T07:10:23;101948.66;;;19.17;56.36
5126;BME280;63008;53.112;8.896;2023-06-14T07:12:25;101952.75;;;19.23;55.69
5126;BME280;63008;53.112;8.896;2023-06-14T07:14:26;101955.63;;;19.27;54.52
5126;BME280;63008;53.112;8.896;2023-06-14T07:16:27;101956.41;;;19.43;54.21
5126;BME280;63008;53.112;8.896;2023-06-14T07:18:28;101956.34;;;19.58;53.84
5126;BME280;63008;53.112;8.896;2023-06-14T07:20:28;101957.31;;;19.66;53.86
5126;BME280;63008;53.112;8.896;2023-06-14T07:22:30;101945.50;;;19.53;53.57
5126;BME280;63008;53.112;8.896;2023-06-14T07:24:31;101959.31;;;19.65;53.97
5126;BME280;63008;53.112;8.896;2023-06-14T07:26:32;101951.16;;;19.76;52.59
5126;BME280;63008;53.112;8.896;2023-06-14T07:28:33;101947.94;;;19.74;52.32
5126;BME280;63008;53.112;8.896;2023-06-14T07:30:35;101959.09;;;19.74;52.21
5126;BME280;63008;53.112;8.896;2023-06-14T07:32:36;101947.56;;;19.75;51.64
5126;BME280;63008;53.112;8.896;2023-06-14T07:34:37;101951.59;;;19.78;51.90
5126;BME280;63008;53.112;8.896;2023-06-14T07:36:38;101955.69;;;19.84;51.44
5126;BME280;63008;53.112;8.896;2023-06-14T07:38:39;101948.91;;;20.00;52.32
5126;BME280;63008;53.112;8.896;2023-06-14T07:40:41;101947.34;;;20.03;51.37
5126;BME280;63008;53.112;8.896;2023-06-14T07:42:42;101947.53;;;20.10;52.31
5126;BME280;63008;53.112;8.896;2023-06-14T07:44:43;101953.09;;;20.10;50.53
5126;BME280;63008;53.112;8.896;2023-06-14T07:46:44;101944.56;;;20.03;50.70
5126;BME280;63008;53.112;8.896;2023-06-14T07:48:46;101944.28;;;20.08;51.56
5126;BME280;63008;53.112;8.896;2023-06-14T07:50:47;101943.00;;;20.24;51.72
5126;BME280;63008;53.112;8.896;2023-06-14T07:52:48;101942.53;;;20.41;51.66
5126;BME280;63008;53.112;8.896;2023-06-14T07:54:49;101951.41;;;20.46;50.94
5126;BME280;63008;53.112;8.896;2023-06-14T07:56:50;101950.47;;;20.39;50.36
5126;BME280;63008;53.112;8.896;2023-06-14T07:58:51;101952.81;;;20.59;51.12
5126;BME280;63008;53.112;8.896;2023-06-14T08:00:52;101951.53;;;20.76;49.17
5126;BME280;63008;53.112;8.896;2023-06-14T08:02:53;101960.13;;;20.86;49.99
5126;BME280;63008;53.112;8.896;2023-06-14T08:04:59;101959.59;;;20.81;49.05
5126;BME280;63008;53.112;8.896;2023-06-14T08:07:00;101956.56;;;20.89;49.14
5126;BME280;63008;53.112;8.896;2023-06-14T08:09:01;101958.00;;;21.02;49.35
5126;BME280;63008;53.112;8.896;2023-06-14T08:11:02;101954.06;;;21.07;48.36
5126;BME280;63008;53.112;8.896;2023-06-14T08:13:03;101956.38;;;21.01;nan
5126;BME280;63008;53.112;8.896;2023-06-14T08:15:05;101950.47;;;21.06;47.38
5126;BME280;63008;53.112;8.896;2023-06-14T08:17:06;101951.88;;;21.19;47.05
5126;BME280;63008;53.112;8.896;2023-06-14T08:19:07;101960.84;;;21.32;47.54
5126;BME280;63008;53.112;8.896;2023-06-14T08:21:08;101960.91;;;21.35;46.67
5126;BME280;63008;53.112;8.896;2023-06-14T08:23:10;101958.09;;;21.35;46.37
5126;BME280;63008;53.112;8.896;2023-06-14T08:25:11;101957.63;;;21.30;46.32
5126;BME280;63008;53.112;8.896;2023-06-14T08:27:12;101945.63;;;21.29;46.86
5126;BME280;63008;53.112;8.896;2023-06-14T08:29:14;101949.66;;;21.32;46.81
5126;BME280;63008;53.112;8.896;2023-06-14T08:31:15;101951.25;;;21.59;47.53
5126;BME280;63008;53.112;8.896;2023-06-14T08:33:16;101945.34;;;21.64;46.39
5126;BME280;63008;53.112;8.896;2023-06-14T08:35:17;101951.63;;;21.87;46.23
5126;BME280;63008;53.112;8.896;2023-06-14T08:37:19;101943.59;;;22.15;47.10
5126;BME280;63008;53.112;8.896;2023-06-14T08:39:20;101943.53;;;22.11;46.17
5126;BME280;63008;53.112;8.896;2023-06-14T08:41:22;101941.88;;;22.07;45.66
5126;BME280;63008;53.112;8.896;2023-06-14T08:43:25;101944.00;;;22.17;46.28
5126;BME280;63008;53.112;8.896;2023-06-14T08:45:26;101942.94;;;22.28;45.39
5126;BME280;63008;53.112;8.896;2023-06-14T08:47:27;101938.00;;;22.15;45.02
5126;BME280;63008;53.112;8.896;2023-06-14T08:49:31;101949.31;;;22.25;45.43
5126;BME280;63008;53.112;8.896;2023-06-14T08:51:32;101953.41;;;22.34;45.95
5126;BME280;63008;53.112;8.896;2023-06-14T08:53:38;101956.84;;;22.54;46.09
5126;BME280;63008;53.112;8.896;2023-06-14T08:55:42;101950.91;;;22.62;44.97
5126;BME280;63008;53.112;8.896;2023-06-14T08:57:44;101951.84;;;22.77;45.09
5126;BME280;63008;53.112;8.896;2023-06-14T08:59:47;101949.19;;;22.94;45.06
5126;BME280;63008;53.112;8.896;2023-06-14T09:01:53;101953.31;;;23.11;44.69
5126;BME280;63008;53.112;8.896;2023-06-14T09:03:55;101951.84;;;23.27;44.55
5126;BME280;63008;53.112;8.896;2023-06-14T09:05:57;101952.38;;;23.47;43.87
5126;BME280;63008;53.112;8.896;2023-06-14T09:08:01;101949.94;;;23.42;43.17
5126;BME280;63008;53.112;8.896;2023-06-14T09:10:11;101950.97;;;23.13;42.31
5126;BME280;63008;53.112;8.896;2023-06-14T09:12:12;101949.22;;;22.98;42.92
5126;BME280;63008;53.112;8.896;2023-06-14T09:14:13;101951.72;;;23.10;43.42
5126;BME280;63008;53.112;8.896;2023-06-14T09:16:14;101966.88;;;23.59;43.56
5126;BME280;63008;53.112;8.896;2023-06-14T09:18:16;101959.94;;;23.39;41.97
5126;BME280;63008;53.112;8.896;2023-06-14T09:20:17;101962.72;;;23.36;41.87
5126;BME280;63008;53.112;8.896;2023-06-14T09:22:19;101957.28;;;23.64;42.51
5126;BME280;63008;53.112;8.896;2023-06-14T09:24:23;101965.78;;;23.81;42.50
5126;BME280;63008;53.112;8.896;2023-06-14T09:26:25;101962.28;;;23.98;41.82
5126;BME280;63008;53.112;8.896;2023-06-14T09:28:28;101957.50;;;24.06;41.48
5126;BME280;63008;53.112;8.896;2023-06-14T09:30:32;101955.53;;;24.24;41.37
5126;BME280;63008;53.112;8.896;2023-06-14T09:32:40;101950.28;;;23.98;41.22
5126;BME280;63008;53.112;8.896;2023-06-14T09:34:41;101959.16;;;24.21;40.91
5126;BME280;63008;53.112;8.896;2023-06-14T09:36:45;101956.47;;;24.80;40.20
5126;BME280;63008;53.112;8.896;2023-06-14T09:38:57;101956.88;;;24.78;39.96
5126;BME280;63008;53.112;8.896;2023-06-14T09:40:58;101945.22;;;25.08;38.85
5126;BME280;63008;53.112;8.896;2023-06-14T09:43:00;101950.03;;;25.07;39.25
5126;BME280;63008;53.112;8.896;2023-06-14T09:45:02;101946.84;;;25.26;39.44
5126;BME280;63008;53.112;8.896;2023-06-14T09:47:04;101944.41;;;25.32;39.15
5126;BME280;63008;53.112;8.896;2023-06-14T09:49:06;101941.97;;;25.48;38.78
5126;BME280;63008;53.112;8.896;2023-06-14T09:51:10;101941.84;;;25.79;38.04
5126;BME280;63008;53.112;8.896;2023-06-14T09:53:11;101934.66;;;25.68;38.09
5126;BME280;63008;53.112;8.896;2023-06-14T09:55:13;101939.47;;;25.67;38.06
5126;BME280;63008;53.112;8.896;2023-06-14T09:57:20;101939.09;;;25.72;37.85
5126;BME280;63008;53.112;8.896;2023-06-14T09:59:26;101931.03;;;25.71;37.64
5126;BME280;63008;53.112;8.896;2023-06-14T10:01:31;101934.16;;;26.01;38.01
5126;BME280;63008;53.112;8.896;2023-06-14T10:03:32;101936.94;;;26.04;38.12
5126;BME280;63008;53.112;8.896;2023-06-14T10:05:36;101932.91;;;26.05;36.61
5126;BME280;63008;53.112;8.896;2023-06-14T10:08:10;101936.44;;;26.23;37.57
5126;BME280;63008;53.112;8.896;2023-06-14T10:10:14;101932.25;;;25.66;37.42
5126;BME280;63008;53.112;8.896;2023-06-14T10:12:16;101934.63;;;25.75;37.72
5126;BME280;63008;53.112;8.896;2023-06-14T10:14:21;101933.28;;;26.14;37.63
5126;BME280;63008;53.112;8.896;2023-06-14T10:16:36;101934.53;;;26.06;36.90
5126;BME280;63008;53.112;8.896;2023-06-14T10:18:49;101933.78;;;25.95;37.14
5126;BME280;63008;53.112;8.896;2023-06-14T10:23:49;101924.88;;;26.04;36.75
5126;BME280;63008;53.112;8.896;2023-06-14T10:25:54;101932.25;;;26.52;36.40
5126;BME280;63008;53.112;8.896;2023-06-14T10:28:23;101930.25;;;26.49;36.11
5126;BME280;63008;53.112;8.896;2023-06-14T10:30:25;101938.09;;;26.75;36.77
5126;BME280;63008;53.112;8.896;2023-06-14T10:32:27;101926.44;;;27.20;35.11
5126;BME280;63008;53.112;8.896;2023-06-14T10:34:32;101925.88;;;27.73;35.10
5126;BME280;63008;53.112;8.896;2023-06-14T10:36:33;101927.47;;;27.74;33.27
5126;BME280;63008;53.112;8.896;2023-06-14T10:38:37;101926.69;;;27.70;34.42
5126;BME280;63008;53.112;8.896;2023-06-14T10:40:39;101930.03;;;28.25;33.89
5126;BME280;63008;53.112;8.896;2023-06-14T10:42:51;101931.13;;;28.34;32.64
5126;BME280;63008;53.112;8.896;2023-06-14T10:44:53;101927.81;;;28.39;33.37
5126;BME280;63008;53.112;8.896;2023-06-14T10:46:59;101939.56;;;28.38;32.55
5126;BME280;63008;53.112;8.896;2023-06-14T10:49:01;101912.41;;;27.50;33.80
5126;BME280;63008;53.112;8.896;2023-06-14T10:51:04;101914.59;;;27.69;34.52